createdAt,value
2022-11-24T00:37:56.136Z,5.97
2022-11-24T00:40:23.736Z,5.55
2022-11-24T00:42:51.208Z,4.90
2022-11-24T00:45:18.675Z,6.90
2022-11-24T00:47:46.282Z,7.20
2022-11-24T00:50:13.797Z,6.15
2022-11-24T00:52:41.275Z,6.20
2022-11-24T00:55:08.838Z,25.23
2022-11-24T00:57:36.294Z,11.25
2022-11-24T01:00:04.635Z,8.65
2022-11-24T01:02:32.217Z,7.90
2022-11-24T01:04:59.833Z,22.52
2022-11-24T01:07:27.413Z,13.98
2022-11-24T01:09:54.953Z,9.02
2022-11-24T01:12:22.562Z,7.60
2022-11-24T01:14:50.140Z,10.10
2022-11-24T01:17:17.849Z,6.47
2022-11-24T01:19:47.465Z,7.13
2022-11-24T01:22:15.688Z,8.13
2022-11-24T01:24:43.391Z,8.73
2022-11-24T01:27:10.926Z,8.73
2022-11-24T01:29:38.497Z,8.73
2022-11-24T01:32:06.169Z,7.55
2022-11-24T01:34:33.896Z,8.25
2022-11-24T01:37:01.765Z,8.80
2022-11-24T01:39:29.360Z,7.28
2022-11-24T01:41:56.869Z,6.95
2022-11-24T01:44:30.025Z,7.60
2022-11-24T01:47:24.064Z,8.13
2022-11-24T01:49:58.759Z,9.70
2022-11-24T01:52:28.458Z,8.35
2022-11-24T01:54:59.211Z,6.50
2022-11-24T01:57:40.511Z,6.85
2022-11-24T02:00:10.980Z,6.55
2022-11-24T02:02:39.698Z,8.63
2022-11-24T02:05:23.586Z,7.13
2022-11-24T02:07:54.393Z,6.35
2022-11-24T02:10:22.815Z,7.18
2022-11-24T02:12:53.919Z,7.65
2022-11-24T02:15:21.759Z,5.88
2022-11-24T02:17:49.307Z,7.85
2022-11-24T02:20:18.150Z,5.70
2022-11-24T02:22:51.894Z,5.90
2022-11-24T02:25:47.300Z,7.43
2022-11-24T02:28:19.853Z,5.90
2022-11-24T02:30:48.274Z,5.95
2022-11-24T02:33:16.446Z,7.68
2022-11-24T02:35:44.145Z,6.10
2022-11-24T02:38:14.876Z,5.30
2022-11-24T02:40:46.977Z,7.05
2022-11-24T02:43:19.894Z,6.72
2022-11-24T02:45:47.948Z,5.68
2022-11-24T02:48:16.519Z,4.32
2022-11-24T02:50:44.093Z,5.45
2022-11-24T02:53:11.754Z,5.13
2022-11-24T02:55:39.295Z,4.80
2022-11-24T02:58:06.946Z,5.93
2022-11-24T03:00:34.501Z,5.10
2022-11-24T03:03:02.432Z,4.35
2022-11-24T03:05:30.031Z,5.38
2022-11-24T03:07:57.592Z,5.03
2022-11-24T03:10:25.156Z,4.38
2022-11-24T03:12:52.715Z,3.35
2022-11-24T03:15:20.261Z,4.78
2022-11-24T03:17:47.860Z,4.68
2022-11-24T03:20:15.651Z,4.60
2022-11-24T03:22:43.215Z,4.85
2022-11-24T03:25:10.857Z,4.85
2022-11-24T03:27:38.507Z,3.63
2022-11-24T03:30:07.013Z,4.68
2022-11-24T03:32:34.591Z,5.32
2022-11-24T03:35:02.163Z,4.88
2022-11-24T03:37:29.848Z,5.18
2022-11-24T03:39:57.376Z,4.85
2022-11-24T03:42:24.985Z,4.53
2022-11-24T03:44:52.498Z,4.95
2022-11-24T03:47:20.050Z,7.07
2022-11-24T03:49:47.739Z,4.45
2022-11-24T03:52:15.596Z,4.78
2022-11-24T03:54:43.228Z,4.80
2022-11-24T03:57:10.801Z,4.82
2022-11-24T03:59:38.428Z,4.57
2022-11-24T04:02:06.066Z,5.93
2022-11-24T04:04:34.797Z,3.50
2022-11-24T04:07:02.683Z,5.18
2022-11-24T04:09:30.216Z,3.63
2022-11-24T12:16:33.985Z,26.00
2022-11-24T12:19:11.779Z,70.40
2022-11-24T12:22:32.538Z,55.72
2022-11-24T12:25:25.464Z,323.60
2022-11-24T12:28:18.189Z,257.38
2022-11-24T12:31:07.103Z,124.30
2022-11-24T12:33:34.582Z,225.85
2022-11-24T12:36:45.875Z,320.92
2022-11-24T12:39:39.335Z,205.80
2022-11-24T12:42:25.229Z,72.25
2022-11-24T12:45:14.335Z,55.63
2022-11-24T12:47:44.716Z,28.15
2022-11-24T12:50:21.145Z,16.10
2022-11-24T12:52:58.616Z,21.55
2022-11-24T12:55:28.228Z,18.17
2022-11-24T12:58:13.302Z,21.02
2022-11-24T13:01:00.930Z,23.05
2022-11-24T13:03:49.887Z,30.75
2022-11-24T13:06:20.817Z,34.45
2022-11-24T13:08:48.528Z,24.65
2022-11-24T13:11:21.401Z,24.92
2022-11-24T13:14:13.997Z,25.30
2022-11-24T13:17:21.822Z,21.23
2022-11-24T13:19:40.974Z,21.80
2022-11-24T13:22:08.375Z,24.10
2022-11-24T13:24:38.877Z,21.30
2022-11-24T13:27:19.838Z,20.00
2022-11-24T13:29:51.462Z,26.50
2022-11-24T13:32:18.737Z,22.65
2022-11-24T13:34:47.075Z,26.77
2022-11-24T13:37:31.897Z,24.38
2022-11-24T13:40:12.348Z,24.00
2022-11-24T13:42:55.023Z,28.27
2022-11-24T13:45:42.150Z,24.52
2022-11-24T13:48:22.524Z,23.85
2022-11-24T13:50:50.192Z,29.48
2022-11-24T13:53:32.447Z,34.75
2022-11-24T13:56:06.071Z,33.20
2022-11-24T13:58:40.656Z,30.95
2022-11-24T14:01:34.684Z,30.00
2022-11-24T14:07:09.466Z,25.27
2022-11-24T14:09:45.512Z,26.27
2022-11-24T14:12:26.893Z,25.73
2022-11-24T14:15:12.756Z,19.42
2022-11-24T14:17:40.186Z,25.75
2022-11-24T14:20:23.349Z,19.45
2022-11-24T14:22:51.194Z,43.63
2022-11-24T14:25:27.988Z,57.53
2022-11-24T14:27:55.784Z,37.17
2022-11-24T14:30:25.429Z,35.47
2022-11-24T14:33:00.338Z,28.63
2022-11-24T14:35:32.936Z,36.20
2022-11-24T14:38:02.946Z,25.98
2022-11-24T14:40:49.226Z,23.83
2022-11-24T14:43:19.424Z,26.60
2022-11-24T14:45:53.341Z,34.38
2022-11-24T14:48:25.856Z,25.63
2022-11-24T14:50:55.021Z,31.73
2022-11-24T14:53:26.188Z,27.73
2022-11-24T14:56:24.593Z,28.75
2022-11-24T14:58:52.789Z,28.73
2022-11-24T15:01:29.325Z,26.23
2022-11-24T15:04:46.371Z,31.20
2022-11-24T15:07:13.492Z,32.75
2022-11-24T15:09:58.005Z,26.75
2022-11-24T15:12:28.732Z,36.60
2022-11-24T15:15:03.487Z,27.90
2022-11-24T15:17:31.922Z,48.83
2022-11-24T15:20:17.550Z,23.30
2022-11-24T15:22:45.241Z,32.88
2022-11-24T15:25:33.841Z,31.92
2022-11-24T15:28:01.516Z,38.67
2022-11-24T15:30:30.182Z,35.08
2022-11-24T15:32:59.264Z,39.90
2022-11-24T15:35:30.293Z,35.92
2022-11-24T15:40:24.990Z,26.25
2022-11-24T15:42:54.582Z,29.73
2022-11-24T15:45:24.460Z,29.85
2022-11-24T15:47:52.040Z,34.25
2022-11-24T15:50:20.923Z,40.47
2022-11-24T15:52:49.185Z,44.30
2022-11-24T15:55:19.300Z,34.72
2022-11-24T15:57:46.870Z,38.40
2022-11-24T16:00:19.490Z,34.03
2022-11-24T20:18:46.903Z,37.28
2022-11-24T20:21:17.157Z,35.63
2022-11-24T20:23:46.417Z,25.60
2022-11-24T20:26:16.706Z,27.58
2022-11-24T20:28:44.292Z,24.67
2022-11-24T20:31:17.515Z,33.05
2022-11-24T20:33:45.953Z,29.85
2022-11-24T20:36:16.039Z,34.35
2022-11-24T20:38:44.671Z,47.40
2022-11-24T20:41:15.509Z,54.20
2022-11-24T20:43:44.304Z,49.63
2022-11-24T20:46:23.634Z,37.58
2022-11-24T20:48:52.794Z,38.10
2022-11-24T20:51:22.675Z,35.72
2022-11-24T20:53:51.137Z,32.20
2022-11-24T20:56:27.540Z,36.38
2022-11-24T20:58:55.943Z,33.53
2022-11-24T21:01:26.976Z,28.80
2022-11-24T21:03:56.993Z,27.63
2022-11-24T21:06:25.415Z,30.55
2022-11-24T21:08:52.860Z,28.75
2022-11-24T21:11:22.241Z,29.08
2022-11-24T21:13:50.491Z,30.55
2022-11-24T21:16:30.118Z,26.20
2022-11-24T21:19:03.016Z,27.63
2022-11-24T21:21:34.710Z,26.55
2022-11-24T21:24:13.165Z,25.55
2022-11-24T21:26:41.417Z,25.55
2022-11-24T21:29:11.554Z,33.40
2022-11-24T21:31:39.150Z,29.70
2022-11-24T21:34:07.952Z,23.80
2022-11-24T21:36:36.137Z,16.58
2022-11-24T21:39:04.353Z,23.33
2022-11-24T21:41:33.660Z,21.17
2022-11-24T21:44:01.259Z,24.35
2022-11-24T21:46:39.035Z,26.08
2022-11-24T21:49:09.893Z,23.63
2022-11-24T21:51:37.357Z,18.95
2022-11-24T21:54:05.735Z,16.35
2022-11-24T21:56:33.258Z,18.90
2022-11-24T21:59:00.734Z,17.05
2022-11-24T22:01:28.950Z,15.45
2022-11-24T22:03:56.679Z,28.10
2022-11-24T22:06:24.548Z,26.17
2022-11-24T22:08:52.069Z,25.80
2022-11-24T22:11:24.733Z,19.73
2022-11-24T22:13:53.008Z,19.88
2022-11-24T22:16:22.672Z,20.92
2022-11-24T22:18:50.728Z,22.38
2022-11-24T22:21:22.515Z,19.30
2022-11-24T22:23:53.292Z,17.30
2022-11-24T22:26:22.921Z,14.40
2022-11-24T22:28:51.052Z,16.83
2022-11-24T22:31:19.943Z,24.13
2022-11-24T22:33:47.665Z,14.10
2022-11-24T22:36:16.645Z,16.27
2022-11-24T22:38:44.371Z,15.20
2022-11-24T22:41:14.303Z,13.63
2022-11-24T22:43:43.279Z,16.23
2022-11-24T22:46:13.785Z,12.43
2022-11-24T22:48:41.776Z,15.60
2022-11-24T22:51:14.224Z,15.98
2022-11-24T22:53:42.245Z,13.13
2022-11-24T22:56:11.371Z,12.80
2022-11-24T22:58:39.687Z,13.00
2022-11-24T23:01:09.346Z,12.48
2022-11-24T23:03:37.256Z,14.85
2022-11-24T23:06:08.560Z,14.88
2022-11-24T23:08:36.385Z,18.52
2022-11-24T23:11:09.195Z,14.02
2022-11-24T23:13:37.140Z,16.45
2022-11-24T23:16:08.131Z,15.35
2022-11-24T23:21:08.271Z,13.57
2022-11-24T23:23:35.939Z,13.27
2022-11-24T23:26:06.228Z,12.25
2022-11-24T23:28:34.208Z,17.75
2022-11-24T23:31:03.037Z,16.15
2022-11-24T23:33:31.355Z,14.52
2022-11-24T23:36:03.806Z,15.57
2022-11-24T23:38:32.977Z,16.45
2022-11-24T23:41:04.198Z,15.43
2022-11-24T23:43:33.072Z,16.77
2022-11-24T23:46:21.849Z,14.23
2022-11-24T23:48:51.506Z,20.17
2022-11-24T23:51:23.278Z,15.50
2022-11-24T23:56:36.341Z,12.18
2022-11-24T23:59:04.701Z,13.15
